sensor_id;sensor_type;location;lat;lon;timestamp;pressure;altitude;pressure_sealevel;temperature;humidity
20955;BME280;10636;19.390;-99.256;2023-02-19T00:01:55;77915.31;;;25.44;26.93
20955;BME280;10636;19.390;-99.256;2023-02-19T00:04:23;77913.94;;;25.43;26.99
20955;BME280;10636;19.390;-99.256;2023-02-19T00:06:52;77913.94;;;25.43;26.83
20955;BME280;10636;19.390;-99.256;2023-02-19T00:09:20;77914.63;;;25.43;27.07
20955;BME280;10636;19.390;-99.256;2023-02-19T00:11:49;77915.31;;;25.44;27.04
20955;BME280;10636;19.390;-99.256;2023-02-19T00:14:19;77909.81;;;25.40;27.25
20955;BME280;10636;19.390;-99.256;2023-02-19T00:16:48;77916.47;;;25.39;27.15
20955;BME280;10636;19.390;-99.256;2023-02-19T00:19:19;77928.59;;;25.40;27.02
20955;BME280;10636;19.390;-99.256;2023-02-19T00:21:50;77931.22;;;25.38;26.93
20955;BME280;10636;19.390;-99.256;2023-02-19T00:24:20;77926.38;;;25.34;27.55
20955;BME280;10636;19.390;-99.256;2023-02-19T00:26:49;77929.06;;;25.34;27.72
20955;BME280;10636;19.390;-99.256;2023-02-19T00:29:19;77930.31;;;25.31;27.44
20955;BME280;10636;19.390;-99.256;2023-02-19T00:31:48;77931.53;;;25.28;27.52
20955;BME280;10636;19.390;-99.256;2023-02-19T00:34:18;77936.06;;;25.23;28.15
20955;BME280;10636;19.390;-99.256;2023-02-19T00:36:46;77935.91;;;25.19;28.08
20955;BME280;10636;19.390;-99.256;2023-02-19T00:39:17;77935.69;;;25.13;28.41
20955;BME280;10636;19.390;-99.256;2023-02-19T00:41:47;77938.16;;;25.07;28.44
20955;BME280;10636;19.390;-99.256;2023-02-19T00:44:15;77942.22;;;25.08;28.54
20955;BME280;10636;19.390;-99.256;2023-02-19T00:46:45;77946.22;;;25.07;28.57
20955;BME280;10636;19.390;-99.256;2023-02-19T00:49:18;77952.78;;;25.04;28.32
20955;BME280;10636;19.390;-99.256;2023-02-19T00:51:48;77955.38;;;25.02;28.52
20955;BME280;10636;19.390;-99.256;2023-02-19T00:54:17;77953.94;;;24.99;28.63
20955;BME280;10636;19.390;-99.256;2023-02-19T00:56:46;77959.16;;;24.95;28.85
20955;BME280;10636;19.390;-99.256;2023-02-19T00:59:15;77953.53;;;24.89;28.83
20955;BME280;10636;19.390;-99.256;2023-02-19T01:01:44;77952.78;;;24.86;28.65
20955;BME280;10636;19.390;-99.256;2023-02-19T01:04:12;77960.69;;;24.82;28.48
20955;BME280;10636;19.390;-99.256;2023-02-19T01:06:43;77962.59;;;24.80;28.60
20955;BME280;10636;19.390;-99.256;2023-02-19T01:09:14;77968.50;;;24.76;28.91
20955;BME280;10636;19.390;-99.256;2023-02-19T01:11:42;77966.44;;;24.74;28.60
20955;BME280;10636;19.390;-99.256;2023-02-19T01:14:12;77972.31;;;24.71;28.36
20955;BME280;10636;19.390;-99.256;2023-02-19T01:16:41;77971.63;;;24.70;28.79
20955;BME280;10636;19.390;-99.256;2023-02-19T01:19:10;77967.47;;;24.67;28.90
20955;BME280;10636;19.390;-99.256;2023-02-19T01:21:39;77968.63;;;24.62;28.96
20955;BME280;10636;19.390;-99.256;2023-02-19T01:24:09;77973.22;;;24.60;29.36
20955;BME280;10636;19.390;-99.256;2023-02-19T01:26:38;77972.72;;;24.63;28.77
20955;BME280;10636;19.390;-99.256;2023-02-19T01:29:07;77982.97;;;24.69;29.01
20955;BME280;10636;19.390;-99.256;2023-02-19T01:31:38;77990.56;;;24.74;29.28
20955;BME280;10636;19.390;-99.256;2023-02-19T01:34:09;77995.47;;;24.80;29.19
20955;BME280;10636;19.390;-99.256;2023-02-19T01:36:39;77993.41;;;24.78;29.22
20955;BME280;10636;19.390;-99.256;2023-02-19T01:39:10;77994.78;;;24.80;29.57
20955;BME280;10636;19.390;-99.256;2023-02-19T01:41:40;77988.06;;;24.78;29.13
20955;BME280;10636;19.390;-99.256;2023-02-19T01:47:17;78010.72;;;24.75;29.75
20955;BME280;10636;19.390;-99.256;2023-02-19T01:49:48;78010.72;;;24.75;29.60
20955;BME280;10636;19.390;-99.256;2023-02-19T01:52:23;78018.16;;;24.77;29.48
20955;BME280;10636;19.390;-99.256;2023-02-19T01:54:55;78024.88;;;24.78;29.77
20955;BME280;10636;19.390;-99.256;2023-02-19T01:57:26;78032.34;;;24.80;29.68
20955;BME280;10636;19.390;-99.256;2023-02-19T01:59:58;78036.34;;;24.78;29.51
20955;BME280;10636;19.390;-99.256;2023-02-19T02:02:29;78039.09;;;24.81;29.04
20955;BME280;10636;19.390;-99.256;2023-02-19T02:04:58;78040.47;;;24.82;29.59
20955;BME280;10636;19.390;-99.256;2023-02-19T02:07:27;78043.94;;;24.84;29.17
20955;BME280;10636;19.390;-99.256;2023-02-19T02:10:14;78049.97;;;24.85;29.39
20955;BME280;10636;19.390;-99.256;2023-02-19T02:12:50;78062.09;;;24.86;29.27
20955;BME280;10636;19.390;-99.256;2023-02-19T02:15:19;78063.47;;;24.87;29.35
20955;BME280;10636;19.390;-99.256;2023-02-19T02:17:55;78045.53;;;24.73;29.71
20955;BME280;10636;19.390;-99.256;2023-02-19T02:20:33;78069.50;;;24.87;29.25
20955;BME280;10636;19.390;-99.256;2023-02-19T02:23:08;78074.25;;;24.89;29.30
20955;BME280;10636;19.390;-99.256;2023-02-19T02:25:58;78070.88;;;24.88;29.31
20955;BME280;10636;19.390;-99.256;2023-02-19T02:31:29;78082.94;;;24.87;29.49
20955;BME280;10636;19.390;-99.256;2023-02-19T02:34:05;78085.59;;;24.87;29.82
20955;BME280;10636;19.390;-99.256;2023-02-19T02:36:37;78096.34;;;24.87;29.41
20955;BME280;10636;19.390;-99.256;2023-02-19T02:39:10;78092.34;;;24.88;29.55
20955;BME280;10636;19.390;-99.256;2023-02-19T02:41:42;78093.59;;;24.85;29.52
20955;BME280;10636;19.390;-99.256;2023-02-19T02:44:11;78091.66;;;24.88;29.54
20955;BME280;10636;19.390;-99.256;2023-02-19T02:46:44;78101.09;;;24.89;30.12
20955;BME280;10636;19.390;-99.256;2023-02-19T02:49:18;78103.78;;;24.89;29.97
20955;BME280;10636;19.390;-99.256;2023-02-19T02:51:52;78108.44;;;24.88;30.21
20955;BME280;10636;19.390;-99.256;2023-02-19T02:54:25;78111.81;;;24.89;30.59
20955;BME280;10636;19.390;-99.256;2023-02-19T02:57:12;78117.19;;;24.89;30.29
20955;BME280;10636;19.390;-99.256;2023-02-19T02:59:42;78118.59;;;24.90;30.13
20955;BME280;10636;19.390;-99.256;2023-02-19T03:02:15;78127.91;;;24.89;30.81
20955;BME280;10636;19.390;-99.256;2023-02-19T03:04:49;78122.53;;;24.89;30.93
20955;BME280;10636;19.390;-99.256;2023-02-19T03:07:38;78136.69;;;24.89;30.30
20955;BME280;10636;19.390;-99.256;2023-02-19T03:10:12;78137.28;;;24.88;30.90
20955;BME280;10636;19.390;-99.256;2023-02-19T03:12:44;78139.88;;;24.86;30.60
20955;BME280;10636;19.390;-99.256;2023-02-19T03:15:34;78150.69;;;24.88;31.14
20955;BME280;10636;19.390;-99.256;2023-02-19T03:18:32;78146.53;;;24.85;30.45
20955;BME280;10636;19.390;-99.256;2023-02-19T03:21:21;78153.97;;;24.86;30.56
20955;BME280;10636;19.390;-99.256;2023-02-19T03:23:52;78153.22;;;24.84;30.60
20955;BME280;10636;19.390;-99.256;2023-02-19T03:26:38;78151.97;;;24.87;30.66
20955;BME280;10636;19.390;-99.256;2023-02-19T03:29:09;78162.66;;;24.85;31.08
20955;BME280;10636;19.390;-99.256;2023-02-19T03:31:54;78168.00;;;24.85;31.30
20955;BME280;10636;19.390;-99.256;2023-02-19T03:34:28;78169.31;;;24.84;31.04
20955;BME280;10636;19.390;-99.256;2023-02-19T03:37:03;78179.44;;;24.85;30.68
20955;BME280;10636;19.390;-99.256;2023-02-19T03:39:33;78177.44;;;24.86;30.54
20955;BME280;10636;19.390;-99.256;2023-02-19T03:42:17;78179.44;;;24.85;30.90
20955;BME280;10636;19.390;-99.256;2023-02-19T03:44:55;78184.78;;;24.85;31.03
20955;BME280;10636;19.390;-99.256;2023-02-19T03:47:30;78179.94;;;24.82;30.90
20955;BME280;10636;19.390;-99.256;2023-02-19T03:50:11;78182.72;;;24.84;30.55
20955;BME280;10636;19.390;-99.256;2023-02-19T03:52:50;78188.78;;;24.84;30.50
20955;BME280;10636;19.390;-99.256;2023-02-19T03:55:26;78183.25;;;24.80;30.31
20955;BME280;10636;19.390;-99.256;2023-02-19T03:58:02;78192.66;;;24.81;30.83
20955;BME280;10636;19.390;-99.256;2023-02-19T04:00:37;78194.66;;;24.81;30.91
20955;BME280;10636;19.390;-99.256;2023-02-19T04:03:10;78191.91;;;24.78;30.82
20955;BME280;10636;19.390;-99.256;2023-02-19T04:05:49;78194.47;;;24.76;30.36
20955;BME280;10636;19.390;-99.256;2023-02-19T04:08:21;78187.06;;;24.75;30.53
20955;BME280;10636;19.390;-99.256;2023-02-19T04:10:52;78194.28;;;24.88;30.57
20955;BME280;10636;19.390;-99.256;2023-02-19T04:13:24;78201.06;;;24.89;30.34
20955;BME280;10636;19.390;-99.256;2023-02-19T04:15:56;78204.34;;;24.88;30.76
20955;BME280;10636;19.390;-99.256;2023-02-19T04:18:30;78212.31;;;24.86;30.12
20955;BME280;10636;19.390;-99.256;2023-02-19T04:21:01;78206.25;;;24.85;30.19
20955;BME280;10636;19.390;-99.256;2023-02-19T04:23:36;78218.19;;;24.82;30.74
20955;BME280;10636;19.390;-99.256;2023-02-19T04:26:08;78215.25;;;24.76;30.47
20955;BME280;10636;19.390;-99.256;2023-02-19T04:28:38;78193.03;;;24.58;30.64
20955;BME280;10636;19.390;-99.256;2023-02-19T04:31:08;78222.69;;;24.77;30.33
20955;BME280;10636;19.390;-99.256;2023-02-19T04:33:40;78214.56;;;24.75;30.22
20955;BME280;10636;19.390;-99.256;2023-02-19T04:36:10;78220.63;;;24.76;30.32
20955;BME280;10636;19.390;-99.256;2023-02-19T04:38:39;78225.28;;;24.75;30.16
20955;BME280;10636;19.390;-99.256;2023-02-19T04:41:08;78229.28;;;24.74;30.18
20955;BME280;10636;19.390;-99.256;2023-02-19T04:43:37;78243.28;;;24.73;30.52
20955;BME280;10636;19.390;-99.256;2023-02-19T04:46:06;78244.69;;;24.74;30.11
20955;BME280;10636;19.390;-99.256;2023-02-19T04:48:34;78244.69;;;24.74;30.10
20955;BME280;10636;19.390;-99.256;2023-02-19T04:51:05;78251.94;;;24.71;30.20
20955;BME280;10636;19.390;-99.256;2023-02-19T04:53:36;78250.47;;;24.68;30.26
20955;BME280;10636;19.390;-99.256;2023-02-19T04:56:06;78248.91;;;24.63;30.28
20955;BME280;10636;19.390;-99.256;2023-02-19T04:58:35;78257.13;;;24.67;30.57
20955;BME280;10636;19.390;-99.256;2023-02-19T05:01:04;78262.47;;;24.67;30.52
20955;BME280;10636;19.390;-99.256;2023-02-19T05:03:33;78262.41;;;24.65;30.19
20955;BME280;10636;19.390;-99.256;2023-02-19T05:06:03;78277.19;;;24.66;30.36
20955;BME280;10636;19.390;-99.256;2023-02-19T05:08:32;78273.06;;;24.63;30.21
20955;BME280;10636;19.390;-99.256;2023-02-19T05:11:03;78274.25;;;24.60;29.87
20955;BME280;10636;19.390;-99.256;2023-02-19T05:13:32;78274.19;;;24.58;29.72
20955;BME280;10636;19.390;-99.256;2023-02-19T05:16:02;78278.06;;;24.55;30.17
20955;BME280;10636;19.390;-99.256;2023-02-19T05:18:32;78282.66;;;24.52;30.34
20955;BME280;10636;19.390;-99.256;2023-02-19T05:21:01;78289.81;;;24.48;30.00
20955;BME280;10636;19.390;-99.256;2023-02-19T05:23:30;78285.66;;;24.45;29.78
20955;BME280;10636;19.390;-99.256;2023-02-19T05:25:59;78284.34;;;24.46;30.10
20955;BME280;10636;19.390;-99.256;2023-02-19T05:28:33;78280.38;;;24.47;29.83
20955;BME280;10636;19.390;-99.256;2023-02-19T05:31:04;78276.41;;;24.48;30.29
20955;BME280;10636;19.390;-99.256;2023-02-19T05:33:34;78278.97;;;24.46;30.24
20955;BME280;10636;19.390;-99.256;2023-02-19T05:36:05;78283.06;;;24.47;30.17
20955;BME280;10636;19.390;-99.256;2023-02-19T05:38:35;78270.94;;;24.46;29.94
20955;BME280;10636;19.390;-99.256;2023-02-19T05:41:08;78271.56;;;24.44;29.96
20955;BME280;10636;19.390;-99.256;2023-02-19T05:43:39;78274.22;;;24.44;29.97
20955;BME280;10636;19.390;-99.256;2023-02-19T05:46:08;78272.16;;;24.43;29.91
20955;BME280;10636;19.390;-99.256;2023-02-19T05:48:37;78267.50;;;24.43;30.63
20955;BME280;10636;19.390;-99.256;2023-02-19T05:51:08;78273.53;;;24.44;30.13
20955;BME280;10636;19.390;-99.256;2023-02-19T05:53:37;78274.84;;;24.43;30.07
20955;BME280;10636;19.390;-99.256;2023-02-19T05:56:23;78265.41;;;24.42;29.99
20955;BME280;10636;19.390;-99.256;2023-02-19T05:58:55;78268.00;;;24.40;30.66
20955;BME280;10636;19.390;-99.256;2023-02-19T06:01:25;78267.22;;;24.37;30.64
20955;BME280;10636;19.390;-99.256;2023-02-19T06:03:54;78271.91;;;24.37;30.39
20955;BME280;10636;19.390;-99.256;2023-02-19T06:06:24;78274.56;;;24.37;30.15
20955;BME280;10636;19.390;-99.256;2023-02-19T06:08:53;78267.81;;;24.36;30.55
20955;BME280;10636;19.390;-99.256;2023-02-19T06:11:22;78273.06;;;24.34;30.46
20955;BME280;10636;19.390;-99.256;2023-02-19T06:13:51;78267.63;;;24.32;30.60
20955;BME280;10636;19.390;-99.256;2023-02-19T06:16:21;78259.47;;;24.30;30.96
20955;BME280;10636;19.390;-99.256;2023-02-19T06:18:50;78263.47;;;24.29;30.58
20955;BME280;10636;19.390;-99.256;2023-02-19T06:21:18;78258.09;;;24.29;30.55
20955;BME280;10636;19.390;-99.256;2023-02-19T06:23:47;78256.72;;;24.27;30.71
20955;BME280;10636;19.390;-99.256;2023-02-19T06:26:18;78267.44;;;24.27;30.23
20955;BME280;10636;19.390;-99.256;2023-02-19T06:28:47;78261.38;;;24.27;30.29
20955;BME280;10636;19.390;-99.256;2023-02-19T06:31:17;78263.28;;;24.24;30.72
20955;BME280;10636;19.390;-99.256;2023-02-19T06:33:48;78262.59;;;24.24;30.58
20955;BME280;10636;19.390;-99.256;2023-02-19T06:36:18;78262.59;;;24.24;30.57
20955;BME280;10636;19.390;-99.256;2023-02-19T06:38:47;78265.94;;;24.24;31.00
20955;BME280;10636;19.390;-99.256;2023-02-19T06:41:16;78276.59;;;24.22;30.44
20955;BME280;10636;19.390;-99.256;2023-02-19T06:43:45;78273.31;;;24.24;30.39
20955;BME280;10636;19.390;-99.256;2023-02-19T06:46:14;78268.56;;;24.22;30.70
20955;BME280;10636;19.390;-99.256;2023-02-19T06:48:43;78263.19;;;24.22;30.98
20955;BME280;10636;19.390;-99.256;2023-02-19T06:51:15;78273.84;;;24.20;30.56
20955;BME280;10636;19.390;-99.256;2023-02-19T06:53:47;78263.13;;;24.20;30.58
20955;BME280;10636;19.390;-99.256;2023-02-19T06:56:24;78267.06;;;24.19;30.63
20955;BME280;10636;19.390;-99.256;2023-02-19T06:58:54;78270.44;;;24.20;30.85
20955;BME280;10636;19.390;-99.256;2023-02-19T07:01:26;78268.38;;;24.18;30.89
20955;BME280;10636;19.390;-99.256;2023-02-19T07:03:55;78264.31;;;24.17;30.39
20955;BME280;10636;19.390;-99.256;2023-02-19T07:06:26;78264.31;;;24.17;30.45
20955;BME280;10636;19.390;-99.256;2023-02-19T07:08:55;78268.28;;;24.16;30.61
20955;BME280;10636;19.390;-99.256;2023-02-19T07:11:25;78266.91;;;24.15;30.76
20955;BME280;10636;19.390;-99.256;2023-02-19T07:13:54;78270.84;;;24.14;31.13
20955;BME280;10636;19.390;-99.256;2023-02-19T07:16:23;78262.03;;;24.12;30.84
20955;BME280;10636;19.390;-99.256;2023-02-19T07:18:54;78266.72;;;24.11;31.30
20955;BME280;10636;19.390;-99.256;2023-02-19T07:21:25;78254.44;;;24.06;30.98
20955;BME280;10636;19.390;-99.256;2023-02-19T07:23:55;78256.00;;;24.11;30.46
20955;BME280;10636;19.390;-99.256;2023-02-19T07:26:24;78263.34;;;24.11;31.01
20955;BME280;10636;19.390;-99.256;2023-02-19T07:28:52;78256.50;;;24.08;30.96
20955;BME280;10636;19.390;-99.256;2023-02-19T07:31:22;78257.19;;;24.08;31.09
20955;BME280;10636;19.390;-99.256;2023-02-19T07:33:51;78271.88;;;24.07;30.71
20955;BME280;10636;19.390;-99.256;2023-02-19T07:36:20;78266.53;;;24.07;30.72
20955;BME280;10636;19.390;-99.256;2023-02-19T07:38:54;78262.47;;;24.06;31.15
20955;BME280;10636;19.390;-99.256;2023-02-19T07:41:24;78251.66;;;24.04;30.81
20955;BME280;10636;19.390;-99.256;2023-02-19T07:43:53;78245.59;;;24.04;31.24
20955;BME280;10636;19.390;-99.256;2023-02-19T07:46:22;78254.25;;;24.02;30.69
20955;BME280;10636;19.390;-99.256;2023-02-19T07:48:51;78248.28;;;24.04;31.38
20955;BME280;10636;19.390;-99.256;2023-02-19T07:51:19;78249.56;;;24.03;30.88
20955;BME280;10636;19.390;-99.256;2023-02-19T07:53:49;78248.19;;;24.02;30.59
20955;BME280;10636;19.390;-99.256;2023-02-19T07:56:19;78247.50;;;24.01;30.48
20955;BME280;10636;19.390;-99.256;2023-02-19T07:58:48;78246.81;;;24.00;31.30
20955;BME280;10636;19.390;-99.256;2023-02-19T08:01:18;78244.72;;;23.99;31.41
20955;BME280;10636;19.390;-99.256;2023-02-19T08:04:07;78258.72;;;23.97;31.29
20955;BME280;10636;19.390;-99.256;2023-02-19T08:06:34;78251.97;;;23.96;31.19
20955;BME280;10636;19.390;-99.256;2023-02-19T08:09:03;78262.00;;;23.96;30.96
20955;BME280;10636;19.390;-99.256;2023-02-19T08:11:33;78248.53;;;23.94;30.64
20955;BME280;10636;19.390;-99.256;2023-02-19T08:14:22;78250.50;;;23.93;31.12
20955;BME280;10636;19.390;-99.256;2023-02-19T08:16:51;78246.44;;;23.92;31.14
20955;BME280;10636;19.390;-99.256;2023-02-19T08:19:20;78252.47;;;23.93;30.94
20955;BME280;10636;19.390;-99.256;2023-02-19T08:21:49;78252.47;;;23.93;31.37
20955;BME280;10636;19.390;-99.256;2023-02-19T08:24:18;78256.47;;;23.92;30.96
20955;BME280;10636;19.390;-99.256;2023-02-19T08:26:49;78255.09;;;23.91;30.60
20955;BME280;10636;19.390;-99.256;2023-02-19T08:29:17;78252.31;;;23.89;31.41
20955;BME280;10636;19.390;-99.256;2023-02-19T08:31:46;78244.88;;;23.87;31.39
20955;BME280;10636;19.390;-99.256;2023-02-19T08:34:15;78244.19;;;23.87;31.23
20955;BME280;10636;19.390;-99.256;2023-02-19T08:36:43;78241.41;;;23.85;31.12
20955;BME280;10636;19.390;-99.256;2023-02-19T08:39:12;78238.72;;;23.85;30.79
20955;BME280;10636;19.390;-99.256;2023-02-19T08:41:40;78226.72;;;23.86;31.13
20955;BME280;10636;19.390;-99.256;2023-02-19T08:44:10;78225.34;;;23.85;31.49
20955;BME280;10636;19.390;-99.256;2023-02-19T08:46:39;78235.38;;;23.84;30.75
20955;BME280;10636;19.390;-99.256;2023-02-19T08:49:07;78232.00;;;23.84;30.75
20955;BME280;10636;19.390;-99.256;2023-02-19T08:51:36;78235.94;;;23.83;30.93
20955;BME280;10636;19.390;-99.256;2023-02-19T08:54:05;78227.84;;;23.81;31.15
20955;BME280;10636;19.390;-99.256;2023-02-19T08:56:33;78234.50;;;23.80;31.20
20955;BME280;10636;19.390;-99.256;2023-02-19T08:59:02;78232.41;;;23.78;30.87
20955;BME280;10636;19.390;-99.256;2023-02-19T09:01:33;78231.69;;;23.78;30.92
20955;BME280;10636;19.390;-99.256;2023-02-19T09:04:01;78234.28;;;23.76;31.19
20955;BME280;10636;19.390;-99.256;2023-02-19T09:06:30;78231.53;;;23.73;30.80
20955;BME280;10636;19.390;-99.256;2023-02-19T09:08:58;78232.91;;;23.74;30.90
20955;BME280;10636;19.390;-99.256;2023-02-19T09:11:27;78227.44;;;23.72;31.67
20955;BME280;10636;19.390;-99.256;2023-02-19T09:13:56;78218.56;;;23.68;31.20
20955;BME280;10636;19.390;-99.256;2023-02-19T09:16:24;78235.41;;;23.70;30.95
20955;BME280;10636;19.390;-99.256;2023-02-19T09:18:54;78232.66;;;23.68;31.81
20955;BME280;10636;19.390;-99.256;2023-02-19T09:21:23;78239.28;;;23.67;31.59
20955;BME280;10636;19.390;-99.256;2023-02-19T09:23:52;78248.59;;;23.66;31.63
20955;BME280;10636;19.390;-99.256;2023-02-19T09:26:20;78235.81;;;23.65;31.03
20955;BME280;10636;19.390;-99.256;2023-02-19T09:28:50;78244.47;;;23.63;31.64
20955;BME280;10636;19.390;-99.256;2023-02-19T09:31:18;78239.09;;;23.63;30.85
20955;BME280;10636;19.390;-99.256;2023-02-19T09:33:48;78237.69;;;23.62;31.66
20955;BME280;10636;19.390;-99.256;2023-02-19T09:36:18;78244.31;;;23.61;31.33
20955;BME280;10636;19.390;-99.256;2023-02-19T09:38:46;78232.84;;;23.59;31.04
20955;BME280;10636;19.390;-99.256;2023-02-19T09:41:21;78236.91;;;23.60;30.82
20955;BME280;10636;19.390;-99.256;2023-02-19T09:43:50;78232.72;;;23.57;30.98
20955;BME280;10636;19.390;-99.256;2023-02-19T09:46:25;78231.97;;;23.54;31.63
20955;BME280;10636;19.390;-99.256;2023-02-19T09:48:58;78236.00;;;23.55;31.63
20955;BME280;10636;19.390;-99.256;2023-02-19T09:51:34;78235.94;;;23.53;31.67
20955;BME280;10636;19.390;-99.256;2023-02-19T09:54:05;78226.41;;;23.50;31.35
20955;BME280;10636;19.390;-99.256;2023-02-19T09:56:35;78222.28;;;23.47;31.50
20955;BME280;10636;19.390;-99.256;2023-02-19T09:59:03;78231.56;;;23.46;31.34
20955;BME280;10636;19.390;-99.256;2023-02-19T10:01:37;78239.50;;;23.44;31.36
20955;BME280;10636;19.390;-99.256;2023-02-19T10:04:08;78247.47;;;23.42;31.73
20955;BME280;10636;19.390;-99.256;2023-02-19T10:06:39;78218.53;;;23.25;31.01
20955;BME280;10636;19.390;-99.256;2023-02-19T10:09:18;78239.22;;;23.38;31.17
20955;BME280;10636;19.390;-99.256;2023-02-19T10:11:50;78241.91;;;23.38;31.02
20955;BME280;10636;19.390;-99.256;2023-02-19T10:14:22;78233.78;;;23.36;31.76
20955;BME280;10636;19.390;-99.256;2023-02-19T10:16:57;78232.38;;;23.35;32.05
20955;BME280;10636;19.390;-99.256;2023-02-19T10:19:28;78239.03;;;23.34;31.71
20955;BME280;10636;19.390;-99.256;2023-02-19T10:21:58;78234.28;;;23.32;31.71
20955;BME280;10636;19.390;-99.256;2023-02-19T10:24:29;78242.94;;;23.31;31.30
20955;BME280;10636;19.390;-99.256;2023-02-19T10:26:57;78247.56;;;23.30;31.39
20955;BME280;10636;19.390;-99.256;2023-02-19T10:29:26;78240.13;;;23.29;31.98
20955;BME280;10636;19.390;-99.256;2023-02-19T10:32:15;78242.72;;;23.27;32.01
20955;BME280;10636;19.390;-99.256;2023-02-19T10:34:46;78242.03;;;23.26;31.80
20955;BME280;10636;19.390;-99.256;2023-02-19T10:37:18;78243.91;;;23.23;31.30
20955;BME280;10636;19.390;-99.256;2023-02-19T10:39:47;78239.84;;;23.22;31.68
20955;BME280;10636;19.390;-99.256;2023-02-19T10:42:18;78250.47;;;23.20;31.24
20955;BME280;10636;19.390;-99.256;2023-02-19T10:44:51;78243.03;;;23.19;31.75
20955;BME280;10636;19.390;-99.256;2023-02-19T10:47:25;78248.28;;;23.17;31.78
20955;BME280;10636;19.390;-99.256;2023-02-19T10:49:57;78247.59;;;23.16;31.41
20955;BME280;10636;19.390;-99.256;2023-02-19T10:52:29;78248.78;;;23.13;31.76
20955;BME280;10636;19.390;-99.256;2023-02-19T10:55:14;78247.47;;;23.14;31.48
20955;BME280;10636;19.390;-99.256;2023-02-19T10:57:43;78237.88;;;23.09;31.56
20955;BME280;10636;19.390;-99.256;2023-02-19T11:00:21;78245.41;;;23.13;31.72
20955;BME280;10636;19.390;-99.256;2023-02-19T11:03:13;78246.09;;;23.13;32.27
20955;BME280;10636;19.390;-99.256;2023-02-19T11:05:53;78230.38;;;23.06;31.56
20955;BME280;10636;19.390;-99.256;2023-02-19T11:08:28;78242.66;;;23.11;32.14
20955;BME280;10636;19.390;-99.256;2023-02-19T11:10:57;78246.03;;;23.11;31.85
20955;BME280;10636;19.390;-99.256;2023-02-19T11:13:27;78247.31;;;23.10;32.01
20955;BME280;10636;19.390;-99.256;2023-02-19T11:15:58;78241.28;;;23.10;31.64
20955;BME280;10636;19.390;-99.256;2023-02-19T11:18:28;78243.84;;;23.08;31.72
20955;BME280;10636;19.390;-99.256;2023-02-19T11:20:59;78236.50;;;23.08;32.06
20955;BME280;10636;19.390;-99.256;2023-02-19T11:23:31;78239.19;;;23.08;32.22
20955;BME280;10636;19.390;-99.256;2023-02-19T11:26:03;78235.03;;;23.05;32.04
20955;BME280;10636;19.390;-99.256;2023-02-19T11:28:34;78236.31;;;23.04;31.51
20955;BME280;10636;19.390;-99.256;2023-02-19T11:31:19;78234.91;;;23.03;32.13
20955;BME280;10636;19.390;-99.256;2023-02-19T11:33:53;78238.81;;;23.00;31.49
20955;BME280;10636;19.390;-99.256;2023-02-19T11:36:29;78244.16;;;23.00;32.14
20955;BME280;10636;19.390;-99.256;2023-02-19T11:39:09;78236.00;;;22.98;32.29
20955;BME280;10636;19.390;-99.256;2023-02-19T11:44:50;78244.03;;;22.98;31.59
20955;BME280;10636;19.390;-99.256;2023-02-19T11:50:29;78241.97;;;22.96;31.88
20955;BME280;10636;19.390;-99.256;2023-02-19T11:53:15;78234.53;;;22.95;32.01
20955;BME280;10636;19.390;-99.256;2023-02-19T11:55:52;78238.50;;;22.94;31.49
20955;BME280;10636;19.390;-99.256;2023-02-19T11:58:47;78239.78;;;22.93;32.05
20955;BME280;10636;19.390;-99.256;2023-02-19T12:01:23;78231.66;;;22.91;31.96
20955;BME280;10636;19.390;-99.256;2023-02-19T12:04:30;78230.97;;;22.90;31.59
20955;BME280;10636;19.390;-99.256;2023-02-19T12:07:08;78240.97;;;22.90;31.51
20955;BME280;10636;19.390;-99.256;2023-02-19T12:09:49;78240.28;;;22.89;32.18
20955;BME280;10636;19.390;-99.256;2023-02-19T12:12:42;78242.81;;;22.87;31.41
20955;BME280;10636;19.390;-99.256;2023-02-19T12:15:26;78250.75;;;22.85;31.66
20955;BME280;10636;19.390;-99.256;2023-02-19T12:18:24;78258.09;;;22.85;31.57
20955;BME280;10636;19.390;-99.256;2023-02-19T12:21:06;78262.75;;;22.84;32.14
20955;BME280;10636;19.390;-99.256;2023-02-19T12:24:01;78266.72;;;22.83;32.13
20955;BME280;10636;19.390;-99.256;2023-02-19T12:26:40;78257.97;;;22.83;31.96
20955;BME280;10636;19.390;-99.256;2023-02-19T12:29:38;78261.94;;;22.82;32.35
20955;BME280;10636;19.390;-99.256;2023-02-19T12:32:28;78269.88;;;22.80;32.05
20955;BME280;10636;19.390;-99.256;2023-02-19T12:38:13;78271.16;;;22.79;31.88
20955;BME280;10636;19.390;-99.256;2023-02-19T12:40:54;78276.53;;;22.79;31.43
20955;BME280;10636;19.390;-99.256;2023-02-19T12:43:27;78268.38;;;22.77;31.52
20955;BME280;10636;19.390;-99.256;2023-02-19T12:46:00;78280.38;;;22.76;31.93
20955;BME280;10636;19.390;-99.256;2023-02-19T12:48:33;78285.72;;;22.76;32.21
20955;BME280;10636;19.390;-99.256;2023-02-19T12:51:06;78282.25;;;22.73;31.79
20955;BME280;10636;19.390;-99.256;2023-02-19T12:53:41;78291.47;;;22.70;32.26
20955;BME280;10636;19.390;-99.256;2023-02-19T12:56:16;78284.03;;;22.68;32.38
20955;BME280;10636;19.390;-99.256;2023-02-19T12:58:49;78296.19;;;22.71;31.49
20955;BME280;10636;19.390;-99.256;2023-02-19T13:01:23;78297.97;;;22.67;31.71
20955;BME280;10636;19.390;-99.256;2023-02-19T13:04:16;78301.38;;;22.67;32.41
20955;BME280;10636;19.390;-99.256;2023-02-19T13:06:50;78321.34;;;22.66;31.58
20955;BME280;10636;19.390;-99.256;2023-02-19T13:09:24;78319.28;;;22.65;32.24
20955;BME280;10636;19.390;-99.256;2023-02-19T13:11:58;78321.84;;;22.63;31.61
20955;BME280;10636;19.390;-99.256;2023-02-19T13:14:32;78320.94;;;22.58;32.42
20955;BME280;10636;19.390;-99.256;2023-02-19T13:17:12;78320.16;;;22.56;32.18
20955;BME280;10636;19.390;-99.256;2023-02-19T13:19:46;78308.47;;;22.49;31.92
20955;BME280;10636;19.390;-99.256;2023-02-19T13:22:21;78310.91;;;22.45;32.28
20955;BME280;10636;19.390;-99.256;2023-02-19T13:25:09;78313.41;;;22.41;32.38